Thursday, August 25, 2016
15:04 UTC
  |  Log In   |  Register Free
Airport Search:

South Big Horn County Airport
(KGEY)

South Big Horn County Airport Diagram
No Airport Diagram Available

FAA data valid effective Jul 21 2016 - Sep 15 2016 (unless otherwise noted).

 
 
 
 
 
 
 
 
 
 
 
 
 
 
Current Aviation Weather for KGEY

Weather Summary


Current weather conditions are not available for GEY - The nearest NOAA weather station is at U68, (28.3 nm NW from GEY)

The most recent METAR observation for GEY was updated at: 12:53 UTC
METAR for GEY is not available. Closest METAR is for
METAR

METAR KGEY 251453Z 00000KT 10SM BKN075 12/03 A3029 RMK AO2 SLP242 T01220033 52004

METAR KGEY 251353Z 29003KT 10SM FEW100 12/03 A3029 RMK AO2 SLP240 T01220033

METAR KGEY 251253Z 27005KT 10SM OVC100 12/04 A3027 RMK AO2 SLP234 T01170039

METAR KU68 251455Z 00000KT 10SM OVC085 12/02 A3030 RMK AO2

METAR KWRL 251453Z 23003KT 10SM BKN075 13/06 A3030 RMK AO2 SLP242 T01280061 51002

TAF for GEY is not available.
TAF

KWRL - TAF KWRL 251138Z 2512/2612 VRB06KT P6SM SCT040 BKN070

KWRL - FM260000 15007KT P6SM VCSH SCT050 BKN070 =

GlobalAir.com is loading additional information.
 Current Weather at GEY
54.0 F° (12.2 C°)

West winds at 3.5 mph
Pressure:
30.29 in
Humidity:
55%
Wind:
West at 3.5 mph
Dew Point:
37.9 F° (3.3 C°)
Visibility:
10.00 mi
GEY NOAA Radar




Find All Airport Services Find A Hotel Find A Rental Car Find A Golf Course Find A Restaurant $100 Hamburger



Airport Weather Forecast for KGEY

Translated METAR for KGEY (1453 UTC)
METAR:
KGEY 251453Z AUTO South Big Horn County, Greybull, WY (KGEY). Aug 25, 1453Z, Automated. Wind is Calm, 10 statute miles visibility, Ceiling is Broken at 7,500 feet, Temperature 12°C, Dewpoint 3°C, Altimeter is 30.29. Remarks: automated station with precipitation discriminator sea level pressure 1024.2 hectopascals hourly temp 12.2°C dewpoint 3.3°C 3-hour atmospheric pressure increasing steadily or unsteadily by 0.4 hectopascals
Conditions at:
KGEY (South Big Horn County, WY) observed 1453 UTC 25 August 2016
Temperature:
54.0 F° (12.2 C°)
Dewpoint:
not reported - refer to area weather report
Pressure:
30.29 Hg
Winds:
not reported
Visibility:
10.00
Ceiling:
at least 12,000 feet AGL
Clouds:
not reported - refer to area weather report
Remarks:
site is un-manned

Translated TAF for TAF for GEY is not available. Refer to local area forecast.
FBO's on the Field
FBO Company Facility Photos Services Transportation Aviation Fuel Prices: Prices include tax
Catering Weather Repair Courtesy Rental Type 100LL JetA JetA+ MOGAS 8087
 
B & G Industries, LLC

This FBO has not yet been rated
FS:Independent
Last Updated: Aug-08
Login to update fuel prices
SS:
Contact B & G Industries, LLCMore FBO Information
 
South Big Horn County Airport

This FBO has not yet been rated
FS:Phillips 66
Last Updated: Jul-20
Login to update fuel prices
SS:
Contact South Big Horn County AirportMore FBO Information
 
Add another FBO Facility Photos Catering Weather Repair Courtesy Rental Type 100LL JetA JetA+ MOGAS 8087
Services Transportation Aviation Fuel Prices: Prices include tax


model-print
model-print
model-print
model-print